Time;durP1;ratioP1;P1;durP2;ratioP2;P2;SDS_P1;SDS_P2;PMS_P1;PMS_P2;Temp;Humidity;BMP_temperature;BMP_pressure;BME280_temperature;BME280_humidity;BME280_pressure;Samples;Min_cycle;Max_cycle;Signal;HPM_P1;HPM_P2
2022/05/15 00:00:55;;;;;;;33.10;5.50;;;;;;;;;;4975399;28;20037;-75
2022/05/15 00:03:22;;;;;;;24.38;4.70;;;;;;;;;;4975175;28;20023;-75
2022/05/15 00:05:53;;;;;;;27.02;5.40;;;;;;;;;;4975160;28;20098;-75
2022/05/15 00:08:19;;;;;;;31.13;6.43;;;;;;;;;;4975309;28;20496;-75
2022/05/15 00:10:45;;;;;;;26.40;5.65;;;;;;;;;;4975195;28;20081;-75
2022/05/15 00:13:11;;;;;;;26.92;4.22;;;;;;;;;;4975237;28;20691;-75
2022/05/15 00:15:38;;;;;;;29.85;5.93;;;;;;;;;;4974959;28;20382;-75
2022/05/15 00:18:04;;;;;;;25.20;4.82;;;;;;;;;;4974769;28;20050;-75
2022/05/15 00:20:31;;;;;;;25.42;4.32;;;;;;;;;;4974897;28;20081;-75
2022/05/15 00:22:57;;;;;;;26.88;4.43;;;;;;;;;;4974977;28;20118;-75
2022/05/15 00:25:23;;;;;;;29.05;4.20;;;;;;;;;;4974881;28;20062;-75
2022/05/15 00:27:49;;;;;;;28.67;5.75;;;;;;;;;;4975035;28;20034;-75
2022/05/15 00:30:16;;;;;;;22.83;4.63;;;;;;;;;;4974248;28;20081;-75
2022/05/15 00:32:42;;;;;;;28.67;5.15;;;;;;;;;;4974848;28;20035;-75
2022/05/15 00:35:09;;;;;;;25.00;4.55;;;;;;;;;;4975020;28;20113;-75
2022/05/15 00:37:35;;;;;;;24.63;5.20;;;;;;;;;;4974770;28;20034;-75
2022/05/15 00:40:01;;;;;;;21.38;5.35;;;;;;;;;;4957149;28;20126;-75
2022/05/15 00:42:27;;;;;;;22.75;4.88;;;;;;;;;;4974815;28;20106;-75
2022/05/15 00:44:53;;;;;;;32.33;6.22;;;;;;;;;;4974695;28;20079;-75
2022/05/15 00:47:19;;;;;;;29.77;4.63;;;;;;;;;;4974499;28;20030;-75
2022/05/15 00:49:45;;;;;;;29.70;6.07;;;;;;;;;;4974559;28;20038;-75
2022/05/15 00:52:13;;;;;;;31.10;4.88;;;;;;;;;;4974521;28;20038;-75
2022/05/15 00:54:50;;;;;;;28.08;4.95;;;;;;;;;;4974431;28;20086;-75
2022/05/15 00:57:18;;;;;;;28.13;4.90;;;;;;;;;;4974573;28;20026;-75
2022/05/15 00:59:57;;;;;;;26.55;4.70;;;;;;;;;;4974225;28;20046;-75
2022/05/15 01:02:25;;;;;;;25.38;4.45;;;;;;;;;;4974363;28;20362;-75
2022/05/15 01:04:52;;;;;;;25.90;5.78;;;;;;;;;;4974342;28;20082;-75
2022/05/15 01:07:18;;;;;;;25.70;5.38;;;;;;;;;;4974022;28;20037;-75
2022/05/15 01:09:45;;;;;;;33.40;5.25;;;;;;;;;;4974138;28;20037;-75
2022/05/15 01:12:11;;;;;;;21.23;4.55;;;;;;;;;;4974267;28;20023;-75
2022/05/15 01:14:40;;;;;;;26.77;5.00;;;;;;;;;;4974091;28;20026;-75
2022/05/15 01:17:06;;;;;;;20.08;4.30;;;;;;;;;;4973976;28;20034;-75
2022/05/15 01:19:33;;;;;;;21.80;4.07;;;;;;;;;;4973949;28;20027;-75
2022/05/15 01:22:00;;;;;;;27.67;5.05;;;;;;;;;;4973903;28;20038;-75
2022/05/15 01:24:26;;;;;;;23.83;4.40;;;;;;;;;;4973840;28;20029;-75
2022/05/15 01:26:53;;;;;;;23.67;4.03;;;;;;;;;;4956372;28;20371;-75
2022/05/15 01:29:27;;;;;;;21.23;3.83;;;;;;;;;;4956385;28;20381;-75
2022/05/15 01:31:53;;;;;;;25.17;4.00;;;;;;;;;;4956319;28;20473;-75
2022/05/15 01:34:19;;;;;;;29.70;5.20;;;;;;;;;;4973544;28;20085;-75
2022/05/15 01:36:45;;;;;;;19.42;4.00;;;;;;;;;;4973624;28;20090;-75
2022/05/15 01:39:11;;;;;;;24.00;4.85;;;;;;;;;;4973345;28;20053;-75
2022/05/15 01:41:37;;;;;;;22.75;4.22;;;;;;;;;;4955219;28;20454;-75
2022/05/15 01:44:03;;;;;;;22.90;4.28;;;;;;;;;;4973553;28;20069;-75
2022/05/15 01:46:30;;;;;;;23.42;5.43;;;;;;;;;;4955864;28;20133;-76
2022/05/15 01:48:56;;;;;;;18.65;3.78;;;;;;;;;;4973433;28;20522;-75
2022/05/15 01:51:23;;;;;;;21.88;4.05;;;;;;;;;;4973309;28;20038;-75
2022/05/15 01:53:49;;;;;;;23.83;4.53;;;;;;;;;;4973371;28;20031;-75
2022/05/15 01:56:15;;;;;;;25.30;4.25;;;;;;;;;;4973334;28;20034;-75
2022/05/15 01:58:41;;;;;;;19.33;4.70;;;;;;;;;;4973313;28;20034;-75
2022/05/15 02:01:07;;;;;;;28.40;6.00;;;;;;;;;;4973176;28;20105;-75
2022/05/15 02:03:34;;;;;;;26.40;4.00;;;;;;;;;;4973302;28;20022;-75
2022/05/15 02:06:01;;;;;;;26.95;4.35;;;;;;;;;;4955817;28;20073;-75
2022/05/15 02:08:30;;;;;;;23.88;4.80;;;;;;;;;;4973252;28;20081;-75
2022/05/15 02:10:56;;;;;;;18.42;4.30;;;;;;;;;;4973147;28;20177;-75
2022/05/15 02:13:22;;;;;;;26.55;4.95;;;;;;;;;;4973176;28;20034;-75
2022/05/15 02:15:48;;;;;;;23.38;4.05;;;;;;;;;;4973016;28;20026;-75
2022/05/15 02:18:14;;;;;;;30.05;4.68;;;;;;;;;;4956721;28;20031;-75
2022/05/15 02:20:40;;;;;;;25.70;5.15;;;;;;;;;;4936358;29;20031;-75
2022/05/15 02:23:08;;;;;;;24.13;5.05;;;;;;;;;;4953692;29;20034;-75
2022/05/15 02:25:34;;;;;;;33.72;4.63;;;;;;;;;;4953682;29;20382;-75
2022/05/15 02:28:00;;;;;;;26.23;6.05;;;;;;;;;;4953573;29;20027;-75
2022/05/15 02:30:26;;;;;;;25.27;4.53;;;;;;;;;;4953600;29;20042;-75
2022/05/15 02:32:52;;;;;;;24.85;4.57;;;;;;;;;;4953727;29;20494;-75
2022/05/15 02:35:19;;;;;;;23.95;4.28;;;;;;;;;;4953868;29;20035;-75
2022/05/15 02:37:47;;;;;;;34.20;3.97;;;;;;;;;;4954629;28;20379;-75
2022/05/15 02:40:13;;;;;;;28.23;5.03;;;;;;;;;;4972650;28;20078;-75
2022/05/15 02:42:39;;;;;;;26.13;4.70;;;;;;;;;;4973039;28;20465;-75
2022/05/15 02:45:05;;;;;;;25.58;4.10;;;;;;;;;;4972823;28;20031;-75
2022/05/15 02:47:32;;;;;;;20.48;3.95;;;;;;;;;;4972764;28;20055;-75
2022/05/15 02:52:42;;;;;;;28.85;5.70;;;;;;;;;;4973335;28;20082;-75
2022/05/15 02:55:08;;;;;;;26.85;4.93;;;;;;;;;;4976666;28;20038;-75
2022/05/15 02:57:35;;;;;;;26.67;4.75;;;;;;;;;;4959300;28;20041;-75
2022/05/15 03:00:01;;;;;;;29.38;4.50;;;;;;;;;;4959029;28;20031;-75
2022/05/15 03:02:27;;;;;;;22.80;4.40;;;;;;;;;;4976537;28;20067;-75
2022/05/15 03:04:53;;;;;;;26.10;4.50;;;;;;;;;;4976588;28;20097;-75
2022/05/15 03:07:19;;;;;;;24.85;4.55;;;;;;;;;;4976288;28;20085;-75
2022/05/15 03:09:47;;;;;;;22.80;4.15;;;;;;;;;;4958946;28;20035;-75
2022/05/15 03:12:13;;;;;;;32.63;6.32;;;;;;;;;;4976516;28;20023;-75
2022/05/15 03:14:39;;;;;;;24.02;4.85;;;;;;;;;;4976192;28;20393;-75
2022/05/15 03:17:05;;;;;;;30.17;4.75;;;;;;;;;;4976226;28;20031;-75
2022/05/15 03:19:31;;;;;;;28.08;5.07;;;;;;;;;;4976238;28;20177;-75
2022/05/15 03:21:57;;;;;;;22.55;4.47;;;;;;;;;;4958791;28;20023;-75
2022/05/15 03:24:23;;;;;;;29.30;4.75;;;;;;;;;;4976194;28;20301;-75
2022/05/15 03:26:49;;;;;;;26.95;5.18;;;;;;;;;;4976172;28;20023;-75
2022/05/15 03:29:18;;;;;;;20.05;4.00;;;;;;;;;;4976090;28;20035;-75
2022/05/15 03:31:45;;;;;;;26.90;4.53;;;;;;;;;;4976066;28;20027;-75
2022/05/15 03:34:12;;;;;;;27.45;4.53;;;;;;;;;;4975928;28;20481;-75
2022/05/15 03:36:39;;;;;;;28.85;4.88;;;;;;;;;;4975850;28;20058;-75
2022/05/15 03:39:06;;;;;;;26.27;5.35;;;;;;;;;;4963709;28;20047;-75
2022/05/15 03:41:33;;;;;;;20.70;4.60;;;;;;;;;;4967892;28;20548;-75
2022/05/15 03:43:59;;;;;;;24.02;5.43;;;;;;;;;;4975850;28;20034;-75
2022/05/15 03:46:25;;;;;;;31.02;6.30;;;;;;;;;;4975669;28;20023;-75
2022/05/15 03:48:51;;;;;;;29.58;5.50;;;;;;;;;;4975505;28;20359;-75
2022/05/15 03:51:17;;;;;;;24.85;5.55;;;;;;;;;;4975603;28;20062;-75
2022/05/15 03:53:43;;;;;;;19.63;4.85;;;;;;;;;;4958223;28;20415;-75
2022/05/15 03:56:09;;;;;;;26.80;4.57;;;;;;;;;;4975502;28;20039;-75
2022/05/15 03:58:37;;;;;;;26.50;5.97;;;;;;;;;;4958119;28;20035;-75
2022/05/15 04:01:04;;;;;;;34.42;5.43;;;;;;;;;;4975363;28;20035;-75
2022/05/15 04:03:30;;;;;;;27.30;5.45;;;;;;;;;;4975584;28;20030;-75
2022/05/15 04:05:56;;;;;;;25.80;4.40;;;;;;;;;;4974202;28;20033;-75
2022/05/15 04:08:22;;;;;;;27.02;5.00;;;;;;;;;;4975505;28;20023;-75
2022/05/15 04:10:48;;;;;;;21.55;4.90;;;;;;;;;;4975371;28;20427;-75
2022/05/15 04:13:14;;;;;;;24.05;4.47;;;;;;;;;;4975241;28;20023;-75
2022/05/15 04:15:41;;;;;;;14.82;3.90;;;;;;;;;;4957605;28;20031;-75
2022/05/15 04:18:09;;;;;;;26.13;4.63;;;;;;;;;;4959972;28;20442;-75
2022/05/15 04:20:35;;;;;;;29.38;4.05;;;;;;;;;;4955659;29;20045;-75
2022/05/15 04:23:01;;;;;;;27.02;4.68;;;;;;;;;;4955900;29;20023;-75
2022/05/15 04:25:27;;;;;;;28.23;5.90;;;;;;;;;;4955684;29;20039;-75
2022/05/15 04:27:53;;;;;;;25.63;4.55;;;;;;;;;;4955823;29;20072;-75
2022/05/15 04:30:21;;;;;;;19.63;3.55;;;;;;;;;;4938271;29;20042;-75
2022/05/15 04:32:47;;;;;;;21.92;4.03;;;;;;;;;;4955561;29;20023;-75
2022/05/15 04:35:13;;;;;;;25.77;4.97;;;;;;;;;;4955836;29;20094;-75
2022/05/15 04:37:39;;;;;;;32.88;4.63;;;;;;;;;;4956038;28;20031;-75
2022/05/15 04:40:06;;;;;;;22.80;4.47;;;;;;;;;;4974514;28;20070;-75
2022/05/15 04:42:33;;;;;;;21.30;4.05;;;;;;;;;;4974767;28;20062;-75
2022/05/15 04:44:59;;;;;;;23.35;3.92;;;;;;;;;;4974819;28;20023;-75
2022/05/15 04:47:25;;;;;;;28.02;4.88;;;;;;;;;;4974558;28;20093;-75
2022/05/15 04:49:51;;;;;;;19.65;3.65;;;;;;;;;;4974719;28;20057;-75
2022/05/15 04:52:17;;;;;;;22.33;3.85;;;;;;;;;;4957074;28;20026;-75
2022/05/15 04:54:43;;;;;;;18.20;3.35;;;;;;;;;;4957116;28;20492;-75
2022/05/15 04:57:09;;;;;;;24.67;4.78;;;;;;;;;;4974541;28;20034;-75
2022/05/15 04:59:35;;;;;;;22.67;3.85;;;;;;;;;;4974366;28;20034;-75
2022/05/15 05:02:03;;;;;;;26.95;4.28;;;;;;;;;;4974403;28;20023;-75
2022/05/15 05:04:29;;;;;;;21.98;4.40;;;;;;;;;;4974368;28;20019;-75
2022/05/15 05:06:55;;;;;;;21.98;3.90;;;;;;;;;;4974084;28;20023;-75
2022/05/15 05:09:21;;;;;;;24.55;4.70;;;;;;;;;;4974035;28;20030;-75
2022/05/15 05:11:47;;;;;;;17.67;3.63;;;;;;;;;;4973788;28;20506;-75
2022/05/15 05:14:13;;;;;;;18.63;3.85;;;;;;;;;;4956433;28;20109;-75
2022/05/15 05:16:39;;;;;;;22.65;5.22;;;;;;;;;;4973307;28;20462;-75
2022/05/15 05:19:06;;;;;;;16.77;4.93;;;;;;;;;;4973585;28;20030;-75
2022/05/15 05:21:33;;;;;;;21.08;3.88;;;;;;;;;;4973402;28;20031;-75
2022/05/15 05:23:59;;;;;;;21.58;3.97;;;;;;;;;;4973537;28;20334;-75
2022/05/15 05:26:25;;;;;;;23.50;3.58;;;;;;;;;;4973398;28;20023;-76
2022/05/15 05:28:51;;;;;;;21.55;3.75;;;;;;;;;;4973352;28;20034;-75
2022/05/15 05:31:18;;;;;;;18.50;4.15;;;;;;;;;;4973165;28;20038;-76
2022/05/15 05:33:44;;;;;;;23.52;3.83;;;;;;;;;;4970890;28;20030;-75
2022/05/15 05:36:11;;;;;;;20.20;3.50;;;;;;;;;;4973315;28;20121;-75
2022/05/15 05:38:37;;;;;;;23.17;4.47;;;;;;;;;;4972700;28;20073;-75
2022/05/15 05:41:03;;;;;;;16.95;3.40;;;;;;;;;;4970597;28;20102;-75
2022/05/15 05:43:29;;;;;;;22.10;3.65;;;;;;;;;;4955481;28;20029;-75
2022/05/15 05:45:55;;;;;;;18.83;4.63;;;;;;;;;;4973076;28;20034;-75
2022/05/15 05:48:21;;;;;;;21.70;4.35;;;;;;;;;;4972934;28;20513;-75
2022/05/15 05:50:47;;;;;;;19.40;4.38;;;;;;;;;;4972844;28;20068;-75
2022/05/15 05:53:13;;;;;;;16.40;3.78;;;;;;;;;;4972681;28;20054;-75
2022/05/15 05:55:39;;;;;;;19.58;3.90;;;;;;;;;;4973279;28;20446;-75
2022/05/15 05:58:05;;;;;;;20.02;4.10;;;;;;;;;;4973263;28;20026;-75
2022/05/15 06:00:33;;;;;;;18.95;3.85;;;;;;;;;;4973293;28;20101;-75
2022/05/15 06:05:44;;;;;;;17.75;3.85;;;;;;;;;;4973364;28;20089;-75
2022/05/15 06:08:10;;;;;;;23.05;3.67;;;;;;;;;;4972795;28;20126;-76
2022/05/15 06:10:36;;;;;;;16.05;2.80;;;;;;;;;;4973045;28;20030;-75
2022/05/15 06:13:03;;;;;;;16.92;3.92;;;;;;;;;;4973280;28;20027;-76
2022/05/15 06:15:29;;;;;;;18.38;4.28;;;;;;;;;;4972912;28;20034;-76
2022/05/15 06:17:59;;;;;;;14.05;3.60;;;;;;;;;;4959222;28;20150;-76
2022/05/15 06:20:25;;;;;;;17.25;4.25;;;;;;;;;;4953650;29;20039;-75
2022/05/15 06:22:51;;;;;;;21.15;3.88;;;;;;;;;;4936396;29;20039;-75
2022/05/15 06:25:17;;;;;;;19.50;4.22;;;;;;;;;;4953653;29;20031;-75
2022/05/15 06:27:43;;;;;;;16.58;3.80;;;;;;;;;;4953233;29;20123;-75
2022/05/15 06:30:12;;;;;;;19.73;4.10;;;;;;;;;;4953716;29;20390;-75
2022/05/15 06:32:39;;;;;;;15.25;3.20;;;;;;;;;;4953631;29;20023;-75
2022/05/15 06:35:05;;;;;;;19.05;3.60;;;;;;;;;;4953868;29;20035;-76
2022/05/15 06:37:31;;;;;;;25.00;3.60;;;;;;;;;;4953494;29;20031;-76
2022/05/15 06:39:58;;;;;;;18.05;4.07;;;;;;;;;;4972205;28;20047;-75
2022/05/15 06:42:25;;;;;;;14.68;3.90;;;;;;;;;;4946612;28;20039;-76
2022/05/15 06:44:51;;;;;;;21.85;4.60;;;;;;;;;;4963124;28;20029;-76
2022/05/15 06:47:17;;;;;;;15.57;3.63;;;;;;;;;;4962728;28;20032;-76
2022/05/15 06:49:44;;;;;;;25.98;3.85;;;;;;;;;;4961651;28;20575;-76
2022/05/15 06:52:10;;;;;;;11.95;2.88;;;;;;;;;;4963437;28;20026;-76
2022/05/15 06:54:36;;;;;;;20.17;3.88;;;;;;;;;;4962787;28;20035;-75
2022/05/15 06:59:47;;;;;;;19.08;3.50;;;;;;;;;;4964602;28;20101;-76
2022/05/15 07:02:13;;;;;;;15.13;3.03;;;;;;;;;;4971863;28;20042;-76
2022/05/15 07:04:39;;;;;;;17.17;3.70;;;;;;;;;;4971757;28;20438;-76
2022/05/15 07:07:05;;;;;;;17.15;4.03;;;;;;;;;;4971652;28;20034;-76
2022/05/15 07:09:31;;;;;;;22.48;3.20;;;;;;;;;;4971737;28;20023;-76
2022/05/15 07:11:58;;;;;;;13.02;3.30;;;;;;;;;;4971541;28;20019;-76
2022/05/15 07:14:24;;;;;;;14.70;3.05;;;;;;;;;;4971655;28;20128;-76
2022/05/15 07:16:50;;;;;;;15.50;3.63;;;;;;;;;;4971650;28;20106;-76
2022/05/15 07:19:16;;;;;;;15.27;3.75;;;;;;;;;;4953185;28;20477;-76
2022/05/15 07:21:42;;;;;;;19.23;3.83;;;;;;;;;;4971605;28;20027;-76
2022/05/15 07:24:08;;;;;;;14.82;4.05;;;;;;;;;;4971803;28;20495;-76
2022/05/15 07:26:34;;;;;;;11.27;3.03;;;;;;;;;;4970293;28;20449;-76
2022/05/15 07:29:00;;;;;;;19.60;3.63;;;;;;;;;;4971753;28;20457;-76
2022/05/15 07:31:26;;;;;;;15.93;3.60;;;;;;;;;;4970490;28;20035;-76
2022/05/15 07:33:52;;;;;;;18.17;3.50;;;;;;;;;;4969405;28;20045;-76
2022/05/15 07:36:19;;;;;;;12.50;3.00;;;;;;;;;;4952257;28;20030;-76
2022/05/15 07:38:45;;;;;;;12.27;2.75;;;;;;;;;;4970199;28;20031;-76
2022/05/15 07:41:11;;;;;;;17.00;3.38;;;;;;;;;;4975273;28;20054;-76
2022/05/15 07:43:37;;;;;;;17.65;4.10;;;;;;;;;;4975334;28;20026;-76
2022/05/15 07:46:03;;;;;;;16.27;3.30;;;;;;;;;;4975213;28;20026;-76
2022/05/15 07:48:29;;;;;;;15.23;3.28;;;;;;;;;;4975406;28;20093;-75
2022/05/15 07:50:56;;;;;;;17.63;4.88;;;;;;;;;;4972426;28;20462;-76
2022/05/15 07:53:22;;;;;;;17.48;4.05;;;;;;;;;;4975526;28;20501;-76
2022/05/15 07:55:48;;;;;;;14.23;3.40;;;;;;;;;;4975484;28;20031;-76
2022/05/15 07:58:14;;;;;;;16.48;3.17;;;;;;;;;;4975351;28;20078;-76
2022/05/15 08:00:40;;;;;;;15.25;3.35;;;;;;;;;;4974103;28;20031;-76
2022/05/15 08:03:07;;;;;;;16.77;4.15;;;;;;;;;;4973354;28;20097;-75
2022/05/15 08:08:19;;;;;;;17.02;3.35;;;;;;;;;;4973223;28;20472;-75
2022/05/15 08:10:45;;;;;;;13.30;3.15;;;;;;;;;;4975364;28;20034;-75
2022/05/15 08:13:16;;;;;;;13.32;3.60;;;;;;;;;;4975740;28;20034;-80
2022/05/15 08:15:42;;;;;;;17.08;3.60;;;;;;;;;;4958443;28;20108;-77
2022/05/15 08:23:58;;;;;;;15.73;3.15;;;;;;;;;;4975586;28;20728;-87
2022/05/15 08:26:24;;;;;;;10.38;2.80;;;;;;;;;;4975268;28;20027;-77
2022/05/15 08:28:50;;;;;;;19.23;3.53;;;;;;;;;;4975149;28;20034;-74
2022/05/15 08:31:17;;;;;;;11.18;3.22;;;;;;;;;;4957224;28;20037;-76
2022/05/15 08:33:44;;;;;;;17.15;3.38;;;;;;;;;;4974829;28;20073;-76
2022/05/15 08:36:10;;;;;;;12.50;3.13;;;;;;;;;;4974861;28;20069;-76
2022/05/15 08:38:37;;;;;;;12.70;4.03;;;;;;;;;;4974515;28;20023;-77
2022/05/15 08:41:07;;;;;;;18.73;3.60;;;;;;;;;;4974463;28;20025;-77
2022/05/15 08:43:42;;;;;;;10.15;2.92;;;;;;;;;;4974857;28;20019;-77
2022/05/15 08:46:44;;;;;;;11.93;3.00;;;;;;;;;;4957177;28;20022;-76
2022/05/15 08:49:11;;;;;;;13.13;3.38;;;;;;;;;;4861658;29;20434;-75
2022/05/15 08:51:38;;;;;;;15.38;3.45;;;;;;;;;;4876811;29;20045;-75
2022/05/15 08:54:05;;;;;;;16.70;3.40;;;;;;;;;;4877517;29;20496;-76
2022/05/15 08:56:36;;;;;;;9.25;3.00;;;;;;;;;;4877351;29;20052;-76
2022/05/15 08:59:04;;;;;;;15.45;3.05;;;;;;;;;;4877266;29;20097;-75
2022/05/15 09:01:31;;;;;;;10.75;2.97;;;;;;;;;;4876438;29;20112;-76
2022/05/15 09:03:58;;;;;;;15.05;3.15;;;;;;;;;;4876607;29;20564;-75
2022/05/15 09:06:24;;;;;;;13.65;2.92;;;;;;;;;;4867031;29;20160;-74
2022/05/15 09:08:59;;;;;;;9.10;3.05;;;;;;;;;;4874055;29;20111;-75
2022/05/15 09:11:43;;;;;;;12.25;2.83;;;;;;;;;;4873333;29;20294;-75
2022/05/15 09:14:13;;;;;;;14.90;3.45;;;;;;;;;;4875643;29;20078;-74
2022/05/15 09:16:42;;;;;;;15.05;3.30;;;;;;;;;;4875357;29;20048;-75
2022/05/15 09:19:08;;;;;;;15.80;2.65;;;;;;;;;;4875032;29;20541;-75
2022/05/15 09:21:35;;;;;;;10.18;3.00;;;;;;;;;;4874133;29;20029;-74
2022/05/15 09:24:09;;;;;;;9.32;2.78;;;;;;;;;;4958621;28;20038;-75
2022/05/15 09:26:43;;;;;;;12.48;2.95;;;;;;;;;;4971992;28;20027;-75
2022/05/15 09:29:20;;;;;;;7.97;2.50;;;;;;;;;;4972341;28;20106;-75
2022/05/15 09:31:46;;;;;;;15.43;2.83;;;;;;;;;;4955867;28;20173;-76
2022/05/15 09:34:21;;;;;;;12.90;3.45;;;;;;;;;;4970509;28;20037;-77
2022/05/15 09:36:49;;;;;;;15.18;2.90;;;;;;;;;;4973211;28;20053;-77
2022/05/15 09:39:24;;;;;;;21.42;3.05;;;;;;;;;;4959701;28;20460;-76
2022/05/15 09:44:46;;;;;;;7.93;2.30;;;;;;;;;;4957829;28;20041;-75
2022/05/15 09:47:26;;;;;;;11.15;2.70;;;;;;;;;;4973414;28;20106;-75
2022/05/15 09:49:52;;;;;;;10.35;2.88;;;;;;;;;;4973484;28;20097;-75
2022/05/15 09:52:20;;;;;;;8.88;2.38;;;;;;;;;;4972924;28;20061;-74
2022/05/15 09:54:48;;;;;;;11.18;3.03;;;;;;;;;;4972898;28;20497;-75
2022/05/15 09:57:13;;;;;;;15.00;2.30;;;;;;;;;;4973263;28;20365;-75
2022/05/15 09:59:40;;;;;;;10.73;2.85;;;;;;;;;;4964607;28;20035;-75
2022/05/15 10:02:06;;;;;;;11.85;2.15;;;;;;;;;;4964152;28;20038;-76
2022/05/15 10:04:33;;;;;;;9.43;2.22;;;;;;;;;;4962011;28;20042;-75
2022/05/15 10:07:04;;;;;;;9.23;2.33;;;;;;;;;;4968897;28;20023;-75
2022/05/15 10:09:39;;;;;;;10.47;2.70;;;;;;;;;;4971755;28;20038;-75
2022/05/15 10:12:08;;;;;;;10.65;2.17;;;;;;;;;;4971011;28;20026;-75
2022/05/15 10:14:39;;;;;;;12.73;2.67;;;;;;;;;;4971689;28;20030;-75
2022/05/15 10:17:06;;;;;;;19.67;2.83;;;;;;;;;;4972145;28;20536;-76
2022/05/15 10:19:45;;;;;;;10.40;2.42;;;;;;;;;;4971731;28;20114;-76
2022/05/15 10:22:16;;;;;;;11.40;2.60;;;;;;;;;;4971411;28;20018;-76
2022/05/15 10:24:44;;;;;;;11.10;1.90;;;;;;;;;;4970245;28;20022;-76
2022/05/15 10:27:13;;;;;;;10.30;2.45;;;;;;;;;;4972623;28;20040;-77
2022/05/15 10:29:42;;;;;;;11.15;2.10;;;;;;;;;;4969904;28;20145;-76
2022/05/15 10:32:11;;;;;;;11.48;2.63;;;;;;;;;;4972279;28;20109;-76
2022/05/15 10:34:38;;;;;;;9.77;2.03;;;;;;;;;;4972578;28;20038;-76
2022/05/15 10:37:13;;;;;;;13.02;2.45;;;;;;;;;;4972300;28;20042;-76
2022/05/15 10:39:51;;;;;;;11.40;2.35;;;;;;;;;;4969791;28;20042;-76
2022/05/15 10:42:25;;;;;;;15.10;2.30;;;;;;;;;;4972405;28;20441;-75
2022/05/15 10:44:57;;;;;;;10.90;1.90;;;;;;;;;;4972397;28;20065;-75
2022/05/15 10:47:28;;;;;;;19.85;2.45;;;;;;;;;;4970388;28;20105;-75
2022/05/15 10:50:18;;;;;;;9.18;2.05;;;;;;;;;;4972340;28;20121;-75
2022/05/15 10:53:02;;;;;;;11.00;2.20;;;;;;;;;;4952058;28;20041;-74
2022/05/15 10:58:23;;;;;;;9.10;2.08;;;;;;;;;;4972818;28;20049;-75
2022/05/15 11:01:06;;;;;;;8.02;2.40;;;;;;;;;;4972276;28;20031;-75
2022/05/15 11:03:32;;;;;;;7.72;1.95;;;;;;;;;;4970846;28;20027;-75
2022/05/15 11:05:58;;;;;;;9.63;2.13;;;;;;;;;;4972419;28;20458;-75
2022/05/15 11:08:30;;;;;;;12.38;2.08;;;;;;;;;;4972497;28;20046;-75
2022/05/15 11:11:16;;;;;;;9.10;2.22;;;;;;;;;;4972441;28;20027;-75
2022/05/15 11:13:42;;;;;;;12.25;2.38;;;;;;;;;;4973199;28;20031;-75
2022/05/15 11:16:08;;;;;;;8.18;1.88;;;;;;;;;;4976111;28;20050;-75
2022/05/15 11:18:36;;;;;;;8.02;1.70;;;;;;;;;;4976100;28;20113;-75
2022/05/15 11:21:06;;;;;;;10.27;1.73;;;;;;;;;;4976103;28;20023;-74
2022/05/15 11:23:40;;;;;;;8.52;1.98;;;;;;;;;;4975298;28;20022;-75
2022/05/15 11:26:12;;;;;;;15.07;2.33;;;;;;;;;;4948964;28;20182;-75
2022/05/15 11:28:42;;;;;;;9.50;1.95;;;;;;;;;;4973215;28;20018;-75
2022/05/15 11:31:17;;;;;;;8.73;2.38;;;;;;;;;;4975474;28;20359;-75
2022/05/15 11:33:46;;;;;;;11.25;2.45;;;;;;;;;;4975869;28;20096;-74
2022/05/15 11:36:29;;;;;;;9.73;2.85;;;;;;;;;;4975725;28;20015;-75
2022/05/15 11:38:58;;;;;;;11.57;2.50;;;;;;;;;;4975609;28;20050;-74
2022/05/15 11:41:30;;;;;;;11.40;2.30;;;;;;;;;;4975797;28;20038;-74
2022/05/15 11:43:58;;;;;;;8.20;2.70;;;;;;;;;;4975269;28;20026;-75
2022/05/15 11:46:44;;;;;;;8.48;2.42;;;;;;;;;;4975149;28;20023;-75
2022/05/15 11:49:33;;;;;;;9.07;2.50;;;;;;;;;;4975638;28;20031;-75
2022/05/15 11:52:12;;;;;;;10.60;2.67;;;;;;;;;;4878099;29;20041;-74
2022/05/15 11:54:39;;;;;;;10.98;1.98;;;;;;;;;;4877983;29;20459;-75
2022/05/15 11:57:09;;;;;;;8.20;1.83;;;;;;;;;;4878210;29;20040;-75
2022/05/15 11:59:55;;;;;;;11.75;2.83;;;;;;;;;;4877748;29;20507;-74
2022/05/15 12:02:21;;;;;;;5.55;1.83;;;;;;;;;;4877570;29;20694;-75
2022/05/15 12:04:51;;;;;;;11.40;2.20;;;;;;;;;;4877668;29;20044;-74
2022/05/15 12:07:17;;;;;;;14.93;2.10;;;;;;;;;;4877861;29;20615;-74
2022/05/15 12:09:44;;;;;;;8.25;2.22;;;;;;;;;;4878047;29;20097;-75
2022/05/15 12:15:06;;;;;;;8.63;1.90;;;;;;;;;;4877668;29;20063;-74
2022/05/15 12:17:37;;;;;;;13.45;2.78;;;;;;;;;;4877955;29;20033;-76
2022/05/15 12:20:10;;;;;;;8.93;2.17;;;;;;;;;;4877909;29;20069;-77
2022/05/15 12:22:43;;;;;;;12.48;2.85;;;;;;;;;;4878314;29;20506;-79
2022/05/15 12:25:10;;;;;;;9.73;2.10;;;;;;;;;;4877420;29;20532;-79
2022/05/15 12:27:42;;;;;;;10.00;2.10;;;;;;;;;;4876913;29;20097;-78
2022/05/15 12:30:15;;;;;;;13.90;2.20;;;;;;;;;;4956062;28;20066;-79
2022/05/15 12:32:53;;;;;;;9.18;2.15;;;;;;;;;;4957170;28;20058;-78
2022/05/15 12:35:23;;;;;;;8.15;1.90;;;;;;;;;;4970414;28;20027;-78
2022/05/15 12:38:04;;;;;;;9.23;2.10;;;;;;;;;;4956926;28;20035;-78
2022/05/15 12:40:33;;;;;;;9.48;2.30;;;;;;;;;;4956679;28;20420;-78
2022/05/15 12:42:59;;;;;;;11.07;2.20;;;;;;;;;;4974596;28;20142;-78
2022/05/15 12:45:26;;;;;;;9.80;2.00;;;;;;;;;;4957318;28;20818;-79
2022/05/15 12:48:06;;;;;;;14.15;2.22;;;;;;;;;;4954534;28;20031;-79
2022/05/15 12:50:32;;;;;;;8.23;1.95;;;;;;;;;;4974244;28;20027;-79
2022/05/15 12:53:03;;;;;;;5.90;1.75;;;;;;;;;;4975113;28;20067;-78
2022/05/15 12:55:33;;;;;;;10.02;1.88;;;;;;;;;;4974830;28;20098;-76
2022/05/15 12:58:05;;;;;;;8.70;2.03;;;;;;;;;;4975002;28;20027;-76
2022/05/15 13:00:33;;;;;;;7.68;1.98;;;;;;;;;;4974677;28;20026;-75
2022/05/15 13:03:00;;;;;;;8.00;1.90;;;;;;;;;;4974383;28;20027;-77
2022/05/15 13:05:29;;;;;;;10.43;2.13;;;;;;;;;;4974024;28;20019;-75
2022/05/15 13:07:56;;;;;;;10.38;2.00;;;;;;;;;;4974329;28;20023;-75
2022/05/15 13:10:23;;;;;;;9.70;1.88;;;;;;;;;;4956330;28;20023;-75
2022/05/15 13:13:08;;;;;;;7.90;1.80;;;;;;;;;;4973773;28;20430;-75
2022/05/15 13:15:35;;;;;;;7.90;1.85;;;;;;;;;;4974031;28;20113;-75
2022/05/15 13:18:04;;;;;;;7.13;1.73;;;;;;;;;;4973986;28;20027;-75
2022/05/15 13:20:31;;;;;;;7.53;2.08;;;;;;;;;;4956300;28;20441;-75
2022/05/15 13:22:59;;;;;;;9.20;1.90;;;;;;;;;;4973411;28;20027;-75
2022/05/15 13:25:36;;;;;;;5.68;1.73;;;;;;;;;;4956264;28;20030;-75
2022/05/15 13:28:02;;;;;;;6.85;2.00;;;;;;;;;;4973616;28;20035;-75
2022/05/15 13:30:29;;;;;;;9.02;1.95;;;;;;;;;;4972848;28;20105;-76
2022/05/15 13:32:59;;;;;;;6.07;1.75;;;;;;;;;;4971692;28;20107;-76
2022/05/15 13:35:26;;;;;;;10.38;2.15;;;;;;;;;;4973165;28;20039;-76
2022/05/15 13:37:54;;;;;;;9.50;1.95;;;;;;;;;;4972890;28;20487;-75
2022/05/15 13:43:29;;;;;;;8.55;1.88;;;;;;;;;;4972595;28;20506;-75
2022/05/15 13:46:22;;;;;;;11.07;1.70;;;;;;;;;;4971687;28;20105;-75
2022/05/15 13:48:59;;;;;;;6.43;1.48;;;;;;;;;;4968790;28;20054;-76
2022/05/15 13:51:44;;;;;;;9.90;1.63;;;;;;;;;;4973139;28;20481;-75
2022/05/15 13:54:13;;;;;;;7.65;1.60;;;;;;;;;;4971312;28;20023;-76
2022/05/15 13:56:40;;;;;;;4.45;1.48;;;;;;;;;;4973234;28;20086;-75
2022/05/15 13:59:06;;;;;;;8.63;2.15;;;;;;;;;;4953073;28;20114;-75
2022/05/15 14:01:34;;;;;;;4.93;1.70;;;;;;;;;;4973076;28;20511;-75
2022/05/15 14:04:20;;;;;;;7.10;2.00;;;;;;;;;;4955684;28;20027;-75
2022/05/15 14:06:46;;;;;;;9.68;2.17;;;;;;;;;;4970240;28;20069;-76
2022/05/15 14:09:14;;;;;;;5.82;1.70;;;;;;;;;;4972927;28;20026;-75
2022/05/15 14:11:53;;;;;;;8.05;2.08;;;;;;;;;;4972717;28;20433;-75
2022/05/15 14:14:39;;;;;;;5.00;1.27;;;;;;;;;;4972051;28;20022;-75
2022/05/15 14:17:06;;;;;;;5.68;1.80;;;;;;;;;;4971538;28;20061;-75
2022/05/15 14:19:32;;;;;;;4.43;1.50;;;;;;;;;;4972758;28;20030;-77
2022/05/15 14:21:59;;;;;;;9.77;1.75;;;;;;;;;;4972940;28;20038;-77
2022/05/15 14:24:26;;;;;;;11.85;1.70;;;;;;;;;;4973075;28;20015;-76
2022/05/15 14:26:52;;;;;;;7.50;2.10;;;;;;;;;;4972831;28;20027;-76
2022/05/15 14:29:18;;;;;;;4.20;1.52;;;;;;;;;;4972646;28;20025;-76
2022/05/15 14:31:45;;;;;;;8.07;1.70;;;;;;;;;;4972549;28;20042;-76
2022/05/15 14:34:11;;;;;;;10.25;1.65;;;;;;;;;;4971534;28;20023;-76
2022/05/15 14:36:37;;;;;;;6.78;1.95;;;;;;;;;;4972604;28;20090;-76
2022/05/15 14:39:04;;;;;;;6.32;1.50;;;;;;;;;;4972669;28;20401;-76
2022/05/15 14:41:30;;;;;;;7.55;1.60;;;;;;;;;;4973030;28;20031;-77
2022/05/15 14:43:56;;;;;;;9.30;1.83;;;;;;;;;;4972716;28;20027;-77
2022/05/15 14:46:24;;;;;;;6.45;1.60;;;;;;;;;;4955271;28;20026;-77
2022/05/15 14:48:50;;;;;;;8.27;1.90;;;;;;;;;;4973309;28;20034;-74
2022/05/15 14:51:21;;;;;;;7.93;1.80;;;;;;;;;;4976455;28;20046;-76
2022/05/15 14:53:47;;;;;;;7.13;2.00;;;;;;;;;;4976357;28;20421;-75
2022/05/15 14:56:14;;;;;;;7.82;2.30;;;;;;;;;;4976390;28;20465;-75
2022/05/15 14:58:52;;;;;;;6.55;1.50;;;;;;;;;;4974214;28;20043;-75
2022/05/15 15:01:19;;;;;;;7.97;1.50;;;;;;;;;;4958952;28;20109;-75
2022/05/15 15:03:45;;;;;;;4.40;1.67;;;;;;;;;;4976799;28;20374;-74
2022/05/15 15:06:11;;;;;;;6.45;1.70;;;;;;;;;;4959319;28;20381;-75
2022/05/15 15:08:37;;;;;;;17.42;2.30;;;;;;;;;;4975593;28;20071;-76